Time;durP1;ratioP1;P1;durP2;ratioP2;P2;SDS_P1;SDS_P2;PMS_P1;PMS_P2;Temp;Humidity;BMP_temperature;BMP_pressure;BME280_temperature;BME280_humidity;BME280_pressure;Samples;Min_cycle;Max_cycle;Signal;HPM_P1;HPM_P2
2023/01/24 00:01:22;;;;;;;29.00;16.50;;;;;;;-145.18;100.00;46668.22;6123526;23;20240;-74
2023/01/24 00:03:47;;;;;;;32.07;17.93;;;;;;;-145.18;100.00;46666.25;6123446;23;20248;-74
2023/01/24 00:06:13;;;;;;;31.77;18.20;;;;;;;-145.18;100.00;46670.16;6121875;23;20507;-75
2023/01/24 00:08:39;;;;;;;30.17;17.87;;;;;;;-145.18;100.00;46674.06;6123909;23;20013;-74
2023/01/24 00:11:07;;;;;;;35.53;18.90;;;;;;;-145.18;100.00;46668.22;6121760;23;20220;-74
2023/01/24 00:13:34;;;;;;;28.07;17.27;;;;;;;-145.18;100.00;46676.03;6123547;23;20132;-74
2023/01/24 00:16:16;;;;;;;30.97;18.57;;;;;;;-145.18;100.00;46677.97;6123189;23;20225;-75
2023/01/24 00:18:42;;;;;;;30.40;17.93;;;;;;;-145.18;100.00;46676.03;6123529;23;20228;-74
2023/01/24 00:21:19;;;;;;;29.23;17.03;;;;;;;-145.18;100.00;46668.22;6123247;23;20228;-74
2023/01/24 00:23:47;;;;;;;28.13;16.53;;;;;;;-145.18;100.00;46670.16;6123558;23;20006;-74
2023/01/24 00:26:14;;;;;;;27.83;15.90;;;;;;;-145.18;100.00;46676.03;6121840;23;20331;-74
2023/01/24 00:28:39;;;;;;;30.57;16.90;;;;;;;-145.18;100.00;46672.13;6123575;23;20233;-74
2023/01/24 00:31:05;;;;;;;27.77;15.67;;;;;;;-145.18;100.00;46674.06;6122851;23;20279;-75
2023/01/24 00:33:31;;;;;;;27.07;15.87;;;;;;;-145.18;100.00;46674.06;6123266;23;20002;-74
2023/01/24 00:35:56;;;;;;;28.17;15.67;;;;;;;-145.18;100.00;46662.34;6123216;23;20006;-74
2023/01/24 00:38:22;;;;;;;23.87;14.13;;;;;;;-145.18;100.00;46668.22;6123845;23;20229;-74
2023/01/24 00:40:48;;;;;;;27.73;16.47;;;;;;;-145.18;100.00;46666.25;6123272;23;20014;-74
2023/01/24 00:43:14;;;;;;;25.43;15.80;;;;;;;-145.18;100.00;46668.22;6121960;23;20035;-74
2023/01/24 00:45:40;;;;;;;25.60;15.37;;;;;;;-145.18;100.00;46668.22;6123338;23;20427;-74
2023/01/24 00:48:06;;;;;;;28.50;17.63;;;;;;;-145.18;100.00;46670.16;6123122;23;20297;-74
2023/01/24 00:50:33;;;;;;;29.50;15.97;;;;;;;-145.18;100.00;46662.34;6123442;23;20029;-74
2023/01/24 00:52:59;;;;;;;26.97;16.17;;;;;;;-145.18;100.00;46670.16;6122952;23;20275;-74
2023/01/24 00:55:24;;;;;;;31.50;16.97;;;;;;;-145.18;100.00;46677.97;6122942;23;20260;-74
2023/01/24 00:57:50;;;;;;;29.53;16.93;;;;;;;-145.18;100.00;46676.03;6122916;23;20264;-74
2023/01/24 01:00:16;;;;;;;27.77;16.20;;;;;;;-145.18;100.00;46679.94;6123266;23;20100;-74
2023/01/24 01:02:42;;;;;;;26.07;16.30;;;;;;;-145.18;100.00;46674.06;6122701;23;20072;-74
2023/01/24 01:05:07;;;;;;;26.93;15.53;;;;;;;-145.18;100.00;46656.50;6123143;23;20033;-74
2023/01/24 01:07:33;;;;;;;25.70;16.60;;;;;;;-145.18;100.00;46668.22;6122921;23;20009;-75
2023/01/24 01:09:58;;;;;;;26.40;16.37;;;;;;;-145.18;100.00;46668.22;6122924;23;20106;-74
2023/01/24 01:12:23;;;;;;;27.00;15.80;;;;;;;-145.18;100.00;46668.22;6121171;23;20010;-74
2023/01/24 01:14:49;;;;;;;29.33;15.70;;;;;;;-145.18;100.00;46672.13;6123092;23;20335;-74
2023/01/24 01:17:15;;;;;;;28.37;15.97;;;;;;;-145.18;100.00;46676.03;6122918;23;20486;-74
2023/01/24 01:19:40;;;;;;;29.23;17.53;;;;;;;-145.18;100.00;46670.16;6123082;23;20010;-74
2023/01/24 01:22:05;;;;;;;31.23;16.60;;;;;;;-145.18;100.00;46668.22;6122414;23;20002;-74
2023/01/24 01:24:31;;;;;;;26.47;15.93;;;;;;;-145.18;100.00;46666.25;6123032;23;20534;-74
2023/01/24 01:26:57;;;;;;;26.73;15.60;;;;;;;-145.18;100.00;46672.13;6122869;23;20010;-74
2023/01/24 01:29:22;;;;;;;27.93;16.33;;;;;;;-145.18;100.00;46672.13;6122837;23;20159;-74
2023/01/24 01:31:47;;;;;;;29.60;17.47;;;;;;;-145.18;100.00;46676.03;6122560;23;20010;-75
2023/01/24 01:34:13;;;;;;;26.87;15.27;;;;;;;-145.18;100.00;46668.22;6122918;23;20061;-74
2023/01/24 01:36:38;;;;;;;26.63;15.00;;;;;;;-145.18;100.00;46676.03;6096769;23;20013;-74
2023/01/24 01:39:04;;;;;;;27.23;15.43;;;;;;;-145.18;100.00;46674.06;6122711;23;20450;-74
2023/01/24 01:41:29;;;;;;;30.70;16.90;;;;;;;-145.18;100.00;46666.25;6122540;23;20025;-74
2023/01/24 01:46:46;;;;;;;27.53;16.57;;;;;;;-145.18;100.00;46660.41;6122548;23;20056;-74
2023/01/24 01:49:21;;;;;;;29.90;16.50;;;;;;;-145.18;100.00;46664.31;6122481;23;20248;-74
2023/01/24 01:51:52;;;;;;;31.30;16.83;;;;;;;-145.18;100.00;46660.41;6122554;23;20248;-74
2023/01/24 01:54:22;;;;;;;28.93;16.50;;;;;;;-145.18;100.00;46660.41;6122848;23;20080;-74
2023/01/24 01:56:56;;;;;;;27.50;16.23;;;;;;;-145.18;100.00;46664.31;6122587;23;20225;-74
2023/01/24 01:59:35;;;;;;;29.43;16.73;;;;;;;-145.18;100.00;46658.44;6122505;23;20228;-74
2023/01/24 02:02:03;;;;;;;31.70;17.43;;;;;;;-145.18;100.00;46664.31;6122333;23;20220;-74
2023/01/24 02:04:33;;;;;;;29.27;16.90;;;;;;;-145.18;100.00;46662.34;6122491;23;20251;-74
2023/01/24 02:07:18;;;;;;;35.23;18.77;;;;;;;-145.18;100.00;46668.22;6122220;23;20228;-74
2023/01/24 02:09:47;;;;;;;30.90;17.23;;;;;;;-145.18;100.00;46664.31;6122853;23;20220;-74
2023/01/24 02:12:19;;;;;;;31.73;17.63;;;;;;;-145.18;100.00;46664.31;6122306;23;20248;-74
2023/01/24 02:17:31;;;;;;;34.92;19.02;;;;;;;-145.18;100.00;46656.50;6122633;23;20226;-74
2023/01/24 02:20:17;;;;;;;31.83;17.87;;;;;;;-145.18;100.00;46652.59;6122207;23;20446;-74
2023/01/24 02:23:13;;;;;;;32.60;17.00;;;;;;;-145.18;100.00;46656.50;6121828;23;20240;-74
2023/01/24 02:26:09;;;;;;;33.17;19.02;;;;;;;-145.18;100.00;46652.59;6122748;23;20013;-74
2023/01/24 02:28:35;;;;;;;34.28;18.80;;;;;;;-145.18;100.00;46658.44;6123200;23;20129;-74
2023/01/24 02:31:02;;;;;;;32.70;18.37;;;;;;;-145.18;100.00;46658.44;6122116;23;20448;-74
2023/01/24 02:33:28;;;;;;;33.33;18.50;;;;;;;-145.18;100.00;46652.59;6122557;23;20667;-74
2023/01/24 02:36:28;;;;;;;32.57;19.00;;;;;;;-145.18;100.00;46654.53;6122503;23;20264;-75
2023/01/24 02:39:01;;;;;;;32.97;19.00;;;;;;;-145.18;100.00;46650.63;6122274;23;20021;-74
2023/01/24 02:41:35;;;;;;;36.40;18.83;;;;;;;-145.18;100.00;46652.59;6122605;23;20687;-74
2023/01/24 02:44:05;;;;;;;33.30;17.87;;;;;;;-145.18;100.00;46652.59;6122266;23;20287;-74
2023/01/24 02:46:35;;;;;;;31.00;17.27;;;;;;;-145.18;100.00;46648.69;6122388;23;20236;-74
2023/01/24 02:49:01;;;;;;;32.73;16.73;;;;;;;-145.18;100.00;46646.72;6122333;23;20260;-74
2023/01/24 02:54:10;;;;;;;32.03;17.93;;;;;;;-145.18;100.00;46648.69;6122826;23;20106;-74
2023/01/24 02:59:19;;;;;;;30.83;17.40;;;;;;;-145.18;100.00;46660.41;6124304;23;20080;-74
2023/01/24 03:01:44;;;;;;;26.43;15.47;;;;;;;-145.18;100.00;46658.44;6114963;23;20263;-74
2023/01/24 03:04:11;;;;;;;28.33;15.37;;;;;;;-145.18;100.00;46666.25;6093155;23;20019;-74
2023/01/24 03:06:37;;;;;;;29.07;17.27;;;;;;;-145.18;100.00;46656.50;6093625;23;20089;-73
2023/01/24 03:09:18;;;;;;;28.87;15.53;;;;;;;-145.18;100.00;46664.31;6093253;23;20256;-74
2023/01/24 03:11:44;;;;;;;28.20;15.43;;;;;;;-145.18;100.00;46662.34;6095086;23;20006;-74
2023/01/24 03:36:06;;;;;;;28.33;16.03;;;;;;;-145.18;100.00;46654.53;6095276;23;20555;-74
2023/01/24 03:41:15;;;;;;;27.53;15.93;;;;;;;-145.18;100.00;46650.63;6094759;23;20216;-74
2023/01/24 03:43:41;;;;;;;31.23;17.40;;;;;;;-145.18;100.00;46652.59;6094700;23;20240;-74
2023/01/24 03:46:06;;;;;;;30.33;18.50;;;;;;;-145.18;100.00;46644.78;6095276;23;20491;-73
2023/01/24 03:48:36;;;;;;;32.60;18.60;;;;;;;-145.18;100.00;46644.78;6094365;23;20500;-73
2023/01/24 03:53:46;;;;;;;34.15;17.63;;;;;;;-145.18;100.00;46642.81;6094581;23;20232;-73
2023/01/24 03:56:12;;;;;;;32.20;17.07;;;;;;;-145.18;100.00;46642.81;6095062;23;20006;-73
2023/01/24 03:58:38;;;;;;;32.73;18.33;;;;;;;-145.18;100.00;46646.72;6094344;23;20040;-73
2023/01/24 04:01:03;;;;;;;32.90;18.20;;;;;;;-145.18;100.00;46644.78;6094643;23;20010;-73
2023/01/24 04:03:30;;;;;;;33.80;18.67;;;;;;;-145.18;100.00;46642.81;6097211;23;20042;-73
2023/01/24 04:05:56;;;;;;;32.23;18.60;;;;;;;-145.18;100.00;46636.94;6094593;23;20015;-74
2023/01/24 04:08:21;;;;;;;30.00;16.73;;;;;;;-145.18;100.00;46636.94;6094475;23;20248;-74
2023/01/24 04:10:46;;;;;;;29.90;17.73;;;;;;;-145.18;100.00;46660.41;6094633;23;20443;-73
2023/01/24 04:13:12;;;;;;;29.67;17.07;;;;;;;-145.18;100.00;46677.97;6094120;23;20057;-73
2023/01/24 04:15:38;;;;;;;33.03;18.60;;;;;;;-145.18;100.00;46638.91;6094413;23;20432;-73
2023/01/24 04:18:05;;;;;;;32.50;18.63;;;;;;;-145.18;100.00;46660.41;6094549;23;20007;-73
2023/01/24 04:20:34;;;;;;;33.43;18.93;;;;;;;-145.18;100.00;46660.41;6094794;23;20013;-73
2023/01/24 04:23:02;;;;;;;31.93;17.83;;;;;;;-145.18;100.00;46660.41;6094174;23;20679;-74
2023/01/24 04:25:27;;;;;;;38.57;20.93;;;;;;;-145.18;100.00;46638.91;6094861;23;20232;-73
2023/01/24 04:27:52;;;;;;;35.10;20.00;;;;;;;-145.18;100.00;46660.41;6094081;23;20582;-73
2023/01/24 04:30:18;;;;;;;32.57;18.50;;;;;;;-145.18;100.00;46660.41;6094641;23;20058;-74
2023/01/24 04:32:44;;;;;;;32.37;18.20;;;;;;;-145.18;100.00;46660.41;6092178;23;20018;-74
2023/01/24 04:35:16;;;;;;;30.93;16.43;;;;;;;-145.18;100.00;46660.41;6094779;23;20439;-74
2023/01/24 04:37:41;;;;;;;32.27;18.10;;;;;;;-145.18;100.00;46660.41;6093892;23;20006;-73
2023/01/24 04:40:08;;;;;;;30.57;17.53;;;;;;;-145.18;100.00;46660.41;6094497;23;20243;-74
2023/01/24 04:42:33;;;;;;;33.97;18.83;;;;;;;-145.18;100.00;46660.41;6094162;23;20020;-73
2023/01/24 04:44:58;;;;;;;29.67;16.77;;;;;;;-145.18;100.00;46660.41;6094251;23;20643;-73
2023/01/24 04:47:24;;;;;;;36.60;20.87;;;;;;;-145.18;100.00;46660.41;6093942;23;20017;-73
2023/01/24 04:49:49;;;;;;;34.13;18.53;;;;;;;-145.18;100.00;46660.41;6092704;23;20121;-74
2023/01/24 04:52:15;;;;;;;33.07;18.27;;;;;;;-145.18;100.00;46660.41;6093990;23;20081;-73
2023/01/24 04:54:40;;;;;;;33.77;18.63;;;;;;;-145.18;100.00;46660.41;6117179;23;20435;-73
2023/01/24 04:57:06;;;;;;;36.17;19.47;;;;;;;-145.18;100.00;46660.41;6094435;23;20395;-74
2023/01/24 04:59:32;;;;;;;34.43;18.23;;;;;;;-145.18;100.00;46660.41;6094390;23;20701;-73
2023/01/24 05:01:57;;;;;;;33.63;18.50;;;;;;;-145.18;100.00;46660.41;6093514;23;20232;-74
2023/01/24 05:04:22;;;;;;;33.30;17.83;;;;;;;-145.18;100.00;46660.41;6094276;23;20360;-73
2023/01/24 05:06:48;;;;;;;36.27;20.30;;;;;;;-145.18;100.00;46660.41;6094143;23;20384;-73
2023/01/24 05:09:13;;;;;;;36.43;19.20;;;;;;;-145.18;100.00;46660.41;6094135;23;20090;-73
2023/01/24 05:11:39;;;;;;;33.73;18.50;;;;;;;-145.18;100.00;46660.41;6094007;23;20336;-73
2023/01/24 05:14:04;;;;;;;33.43;18.90;;;;;;;-145.18;100.00;46660.41;6093756;23;20015;-73
2023/01/24 05:16:30;;;;;;;38.47;21.40;;;;;;;-145.18;100.00;46677.97;6093985;23;20018;-74
2023/01/24 05:18:55;;;;;;;34.90;18.90;;;;;;;-145.18;100.00;46660.41;6093605;23;20061;-74
2023/01/24 05:21:21;;;;;;;34.37;18.83;;;;;;;-145.18;100.00;46644.78;6094209;23;20014;-74
2023/01/24 05:23:53;;;;;;;36.10;19.23;;;;;;;-145.18;100.00;46644.78;6090249;23;20006;-74
2023/01/24 05:26:21;;;;;;;35.73;19.83;;;;;;;-145.18;100.00;46656.50;6092954;23;20369;-73
2023/01/24 05:28:47;;;;;;;34.57;19.97;;;;;;;-145.18;100.00;46648.69;6093039;23;20237;-73
2023/01/24 05:31:12;;;;;;;36.87;21.23;;;;;;;-145.18;100.00;46679.94;6093513;23;20241;-73
2023/01/24 05:33:38;;;;;;;33.00;18.87;;;;;;;-145.18;100.00;46648.69;6093035;23;20011;-74
2023/01/24 05:36:12;;;;;;;35.83;19.63;;;;;;;-145.18;100.00;46642.81;6093471;23;20037;-73
2023/01/24 05:38:37;;;;;;;35.22;19.02;;;;;;;-145.18;100.00;46644.78;6092941;23;20051;-73
2023/01/24 05:41:08;;;;;;;36.63;20.33;;;;;;;-145.18;100.00;46654.53;6093596;23;20006;-74
2023/01/24 05:43:35;;;;;;;34.90;19.00;;;;;;;-145.18;100.00;46652.59;6115796;23;20508;-74
2023/01/24 05:46:09;;;;;;;37.70;21.40;;;;;;;-145.18;100.00;46650.63;6093906;23;20229;-74
2023/01/24 05:48:35;;;;;;;38.85;21.45;;;;;;;-145.18;100.00;46650.63;6092526;23;20235;-73
2023/01/24 05:51:12;;;;;;;38.20;21.37;;;;;;;-145.18;100.00;46650.63;6093532;23;20085;-74
2023/01/24 05:53:39;;;;;;;37.20;20.23;;;;;;;-145.18;100.00;46656.50;6091637;23;20384;-74
2023/01/24 05:56:07;;;;;;;33.80;20.47;;;;;;;-145.18;100.00;46644.78;6093041;23;20705;-73
2023/01/24 05:58:35;;;;;;;35.40;20.58;;;;;;;-145.18;100.00;46648.69;6093124;23;20268;-73
2023/01/24 06:01:00;;;;;;;37.43;20.43;;;;;;;-145.18;100.00;46679.94;6115980;23;20347;-74
2023/01/24 06:03:26;;;;;;;40.83;21.93;;;;;;;-145.18;100.00;46679.94;6092934;23;20253;-73
2023/01/24 06:05:53;;;;;;;35.70;20.47;;;;;;;-145.18;100.00;46642.81;6093575;23;20017;-74
2023/01/24 06:08:21;;;;;;;37.40;20.33;;;;;;;-145.18;100.00;46642.81;6093492;23;20059;-74
2023/01/24 06:10:48;;;;;;;41.50;22.13;;;;;;;-145.18;100.00;46677.97;6093374;23;20742;-73
2023/01/24 06:13:14;;;;;;;38.97;21.17;;;;;;;-145.18;100.00;46679.94;6093267;23;20324;-73
2023/01/24 06:15:39;;;;;;;36.90;20.93;;;;;;;-145.18;100.00;46677.97;6093246;23;20245;-73
2023/01/24 06:18:06;;;;;;;41.03;21.27;;;;;;;-145.18;100.00;46660.41;6084408;23;20110;-73
2023/01/24 06:20:32;;;;;;;41.83;22.33;;;;;;;-145.18;100.00;46660.41;6090444;23;20381;-73
2023/01/24 06:23:06;;;;;;;42.17;22.17;;;;;;;-145.18;100.00;46679.94;6093176;23;20358;-74
2023/01/24 06:25:32;;;;;;;39.67;20.50;;;;;;;-145.18;100.00;46677.97;6092389;23;20938;-73
2023/01/24 06:27:58;;;;;;;37.77;21.67;;;;;;;-145.18;100.00;46660.41;6085575;23;20139;-73
2023/01/24 06:30:24;;;;;;;39.20;19.93;;;;;;;-145.18;100.00;46660.41;6093109;23;20244;-73
2023/01/24 06:33:02;;;;;;;36.77;20.33;;;;;;;-145.18;100.00;46677.97;6095045;23;20249;-73
2023/01/24 06:35:33;;;;;;;38.37;21.27;;;;;;;-145.18;100.00;46660.41;6095390;23;20010;-73
2023/01/24 06:37:59;;;;;;;41.07;22.43;;;;;;;-145.18;100.00;46677.97;6095114;23;20265;-73
2023/01/24 06:40:25;;;;;;;38.83;20.27;;;;;;;-145.18;100.00;46660.41;6095655;23;20260;-73
2023/01/24 06:42:52;;;;;;;41.50;22.60;;;;;;;-145.18;100.00;46660.41;6094839;23;20037;-73
2023/01/24 06:45:18;;;;;;;38.33;21.13;;;;;;;-145.18;100.00;46660.41;6095477;23;20221;-73
2023/01/24 06:47:44;;;;;;;41.43;22.97;;;;;;;-145.18;100.00;46679.94;6094907;23;20233;-73
2023/01/24 06:50:21;;;;;;;36.90;21.43;;;;;;;-145.18;100.00;46640.88;6095405;23;20669;-73
2023/01/24 06:52:51;;;;;;;38.47;21.20;;;;;;;-145.18;100.00;46679.94;6094847;23;20074;-73
2023/01/24 06:55:17;;;;;;;42.70;23.87;;;;;;;-145.18;100.00;46644.78;6091979;23;20327;-73
2023/01/24 06:57:43;;;;;;;39.27;22.70;;;;;;;-145.18;100.00;46679.94;6093674;23;20572;-73
2023/01/24 07:00:09;;;;;;;43.53;23.27;;;;;;;-145.18;100.00;46644.78;6095231;23;20090;-73
2023/01/24 07:02:35;;;;;;;37.37;22.47;;;;;;;-145.18;100.00;46648.69;6094472;23;20253;-73
2023/01/24 07:05:00;;;;;;;40.13;22.90;;;;;;;-145.18;100.00;46650.63;6094657;23;20245;-74
2023/01/24 07:07:25;;;;;;;41.27;23.20;;;;;;;-145.18;100.00;46656.50;6094707;23;20011;-73
2023/01/24 07:09:51;;;;;;;44.20;23.97;;;;;;;-145.18;100.00;46650.63;6094337;23;20495;-74
2023/01/24 07:12:16;;;;;;;41.30;23.10;;;;;;;-145.18;100.00;46648.69;6117677;23;20014;-73
2023/01/24 07:14:42;;;;;;;41.50;22.33;;;;;;;-145.18;100.00;46652.59;6093417;23;20030;-73
2023/01/24 07:17:07;;;;;;;42.07;23.67;;;;;;;-145.18;100.00;46646.72;6117579;23;20066;-73
2023/01/24 07:19:33;;;;;;;40.27;22.73;;;;;;;-145.18;100.00;46648.69;6094625;23;20014;-73
2023/01/24 07:21:59;;;;;;;45.00;23.47;;;;;;;-145.18;100.00;46652.59;6094444;23;20058;-73
2023/01/24 07:24:27;;;;;;;43.75;23.63;;;;;;;-145.18;100.00;46646.72;6094546;23;20007;-74
2023/01/24 07:26:54;;;;;;;42.15;23.58;;;;;;;-145.18;100.00;46644.78;6095045;23;20328;-73
2023/01/24 07:29:20;;;;;;;40.45;21.65;;;;;;;-145.18;100.00;46650.63;6117423;23;20006;-73
2023/01/24 07:31:47;;;;;;;42.22;23.33;;;;;;;-145.18;100.00;46650.63;6094547;23;20010;-73
2023/01/24 07:34:14;;;;;;;44.38;23.23;;;;;;;-145.18;100.00;46650.63;6094004;23;20010;-73
2023/01/24 07:36:41;;;;;;;44.53;22.52;;;;;;;-145.18;100.00;46646.72;6094519;23;20093;-73
2023/01/24 07:39:06;;;;;;;39.87;22.80;;;;;;;-145.18;100.00;46648.69;6094605;23;20054;-73
2023/01/24 07:41:32;;;;;;;44.37;22.57;;;;;;;-145.18;100.00;46652.59;6094801;23;20233;-73
2023/01/24 07:43:57;;;;;;;43.53;23.83;;;;;;;-145.18;100.00;46654.53;6093816;23;20014;-73
2023/01/24 07:46:23;;;;;;;46.83;24.10;;;;;;;-145.18;100.00;46656.50;6094865;23;20010;-73
2023/01/24 07:48:48;;;;;;;41.70;23.33;;;;;;;-145.18;100.00;46662.34;6094309;23;20030;-73
2023/01/24 07:51:13;;;;;;;48.77;26.03;;;;;;;-145.18;100.00;46664.31;6094837;23;20014;-73
2023/01/24 07:53:39;;;;;;;47.40;24.30;;;;;;;-145.18;100.00;46664.31;6093744;23;20014;-73
2023/01/24 07:56:04;;;;;;;46.90;24.23;;;;;;;-145.18;100.00;46668.22;6094572;23;20007;-73
2023/01/24 07:58:30;;;;;;;45.57;24.20;;;;;;;-145.18;100.00;46664.31;6117094;23;20014;-73
2023/01/24 08:00:55;;;;;;;44.27;24.20;;;;;;;-145.18;100.00;46672.13;6117075;23;20203;-73
2023/01/24 08:03:21;;;;;;;43.47;22.93;;;;;;;-145.18;100.00;46662.34;6093821;23;20149;-73
2023/01/24 08:05:46;;;;;;;43.30;23.83;;;;;;;-145.18;100.00;46662.34;6093983;23;20106;-73
2023/01/24 08:08:12;;;;;;;45.93;24.37;;;;;;;-145.18;100.00;46668.22;6094419;23;20014;-73
2023/01/24 08:10:37;;;;;;;43.50;23.53;;;;;;;-145.18;100.00;46666.25;6094087;23;20579;-73
2023/01/24 08:13:03;;;;;;;44.00;22.30;;;;;;;-145.18;100.00;46674.06;6094108;23;20025;-73
2023/01/24 08:15:28;;;;;;;44.30;24.13;;;;;;;-145.18;100.00;46681.88;6094503;23;20017;-73
2023/01/24 08:17:53;;;;;;;48.47;24.97;;;;;;;-145.18;100.00;46683.84;6093486;23;20100;-73
2023/01/24 08:20:19;;;;;;;44.13;23.07;;;;;;;-145.18;100.00;46681.88;6092637;23;20034;-73
2023/01/24 08:22:44;;;;;;;44.77;22.63;;;;;;;-145.18;100.00;46685.78;6116799;23;20420;-73
2023/01/24 08:25:10;;;;;;;44.93;24.33;;;;;;;-145.18;100.00;46683.84;6094418;23;20624;-73
2023/01/24 08:27:39;;;;;;;47.80;23.93;;;;;;;-145.18;100.00;46683.84;6094251;23;20348;-73
2023/01/24 08:30:05;;;;;;;43.87;23.63;;;;;;;-145.18;100.00;46683.84;6092566;23;20085;-73
2023/01/24 08:32:31;;;;;;;45.77;23.90;;;;;;;-145.18;100.00;46679.94;6093093;23;20311;-73
2023/01/24 08:34:57;;;;;;;43.22;21.58;;;;;;;-145.18;100.00;46679.94;6093450;23;20014;-73
2023/01/24 08:37:23;;;;;;;46.87;24.20;;;;;;;-145.18;100.00;46687.75;6092485;23;20032;-73
2023/01/24 08:39:48;;;;;;;46.78;24.92;;;;;;;-145.18;100.00;46677.97;6093937;23;20032;-73
2023/01/24 08:42:14;;;;;;;43.07;23.47;;;;;;;-145.18;100.00;46674.06;6093896;23;20015;-73
2023/01/24 08:44:39;;;;;;;41.83;21.67;;;;;;;-145.18;100.00;46676.03;6093551;23;20006;-73
2023/01/24 08:47:05;;;;;;;47.30;24.77;;;;;;;-145.18;100.00;46676.03;6093921;23;20010;-73
2023/01/24 08:49:30;;;;;;;49.03;24.27;;;;;;;-145.18;100.00;46681.88;6115422;23;20388;-73
2023/01/24 08:51:58;;;;;;;52.80;24.47;;;;;;;-145.18;100.00;46670.16;6093490;23;20010;-73
2023/01/24 08:54:32;;;;;;;45.03;24.73;;;;;;;-145.18;100.00;46683.84;6093946;23;20332;-73
2023/01/24 08:56:57;;;;;;;49.57;26.33;;;;;;;-145.18;100.00;46683.84;6093895;23;20029;-73
2023/01/24 08:59:23;;;;;;;47.10;24.07;;;;;;;-145.18;100.00;46683.84;6093665;23;20341;-73
2023/01/24 09:01:48;;;;;;;46.33;23.63;;;;;;;-145.18;100.00;46674.06;6090864;23;20014;-73
2023/01/24 09:04:13;;;;;;;53.53;26.60;;;;;;;-145.18;100.00;46674.06;6093029;23;20432;-73
2023/01/24 09:06:39;;;;;;;45.30;24.37;;;;;;;-145.18;100.00;46676.03;6093286;23;20006;-74
2023/01/24 09:09:05;;;;;;;45.87;23.00;;;;;;;-145.18;100.00;46679.94;6093196;23;20022;-73
2023/01/24 09:11:31;;;;;;;47.23;22.93;;;;;;;-145.18;100.00;46672.13;6093697;23;20041;-73
2023/01/24 09:13:57;;;;;;;48.27;24.70;;;;;;;-145.18;100.00;46677.97;6093277;23;20089;-74
2023/01/24 09:16:23;;;;;;;47.57;24.37;;;;;;;-145.18;100.00;46668.22;6093413;23;20695;-73
2023/01/24 09:18:50;;;;;;;47.75;26.27;;;;;;;-145.18;100.00;46668.22;6091227;23;20368;-74
2023/01/24 09:21:17;;;;;;;46.65;24.35;;;;;;;-145.18;100.00;46670.16;6093720;23;20013;-74
2023/01/24 09:23:42;;;;;;;47.63;24.97;;;;;;;-145.18;100.00;46658.44;6092804;23;20042;-73
2023/01/24 09:26:08;;;;;;;49.47;25.43;;;;;;;-145.18;100.00;46660.41;6093640;23;20232;-73
2023/01/24 09:28:33;;;;;;;49.00;24.97;;;;;;;-145.18;100.00;46664.31;6093547;23;20062;-73
2023/01/24 09:31:00;;;;;;;48.30;24.87;;;;;;;-145.18;100.00;46660.41;6093412;23;20015;-73
2023/01/24 09:33:26;;;;;;;49.50;25.23;;;;;;;-145.18;100.00;46666.25;6093166;23;20014;-73
2023/01/24 09:35:56;;;;;;;47.50;24.97;;;;;;;-145.18;100.00;46656.50;6116276;23;20769;-73
2023/01/24 09:38:24;;;;;;;47.57;25.60;;;;;;;-145.18;100.00;46652.59;6093249;23;20004;-73
2023/01/24 09:40:55;;;;;;;48.33;24.00;;;;;;;-145.18;100.00;46656.50;6093228;23;20626;-72
2023/01/24 09:43:36;;;;;;;42.63;22.67;;;;;;;-145.18;100.00;46652.59;6093272;23;20261;-73
2023/01/24 09:46:23;;;;;;;43.83;23.50;;;;;;;-145.18;100.00;46644.78;6093653;23;20249;-73
2023/01/24 09:48:54;;;;;;;53.77;27.20;;;;;;;-145.18;100.00;46640.88;6093104;23;20583;-73
2023/01/24 09:51:25;;;;;;;44.00;23.40;;;;;;;-145.18;100.00;46646.72;6093422;23;20284;-74
2023/01/24 09:53:56;;;;;;;47.00;24.67;;;;;;;-145.18;100.00;46633.06;6092784;23;20228;-74
2023/01/24 09:56:30;;;;;;;48.40;24.53;;;;;;;-145.18;100.00;46627.19;6092010;23;20540;-74
2023/01/24 09:59:12;;;;;;;44.23;22.47;;;;;;;-145.18;100.00;46633.06;6093258;23;20225;-74
2023/01/24 10:01:40;;;;;;;46.77;23.53;;;;;;;-145.18;100.00;46631.09;6092166;23;20225;-74
2023/01/24 10:04:13;;;;;;;50.53;24.73;;;;;;;-145.18;100.00;46629.13;6092583;23;20271;-74
2023/01/24 10:06:39;;;;;;;45.90;24.70;;;;;;;-145.18;100.00;46629.13;6093491;23;20304;-74
2023/01/24 10:09:19;;;;;;;48.10;25.83;;;;;;;-145.18;100.00;46627.19;6093376;23;20057;-74
2023/01/24 10:11:57;;;;;;;47.97;25.53;;;;;;;-145.18;100.00;46627.19;6091663;23;20303;-74
2023/01/24 10:14:40;;;;;;;45.97;25.27;;;;;;;-145.18;100.00;46623.28;6092555;23;20292;-74
2023/01/24 10:17:41;;;;;;;49.23;25.33;;;;;;;-145.18;100.00;46633.06;6091950;23;20244;-74
2023/01/24 10:20:25;;;;;;;50.90;26.23;;;;;;;-145.18;100.00;46629.13;6091434;23;20237;-74
2023/01/24 10:23:01;;;;;;;47.33;25.77;;;;;;;-145.18;100.00;46625.22;6093274;23;20225;-74
2023/01/24 10:25:33;;;;;;;51.83;26.43;;;;;;;-145.18;100.00;46627.19;6093835;23;20247;-74
2023/01/24 10:28:01;;;;;;;47.37;25.70;;;;;;;-145.18;100.00;46623.28;6091967;23;20254;-74
2023/01/24 10:30:41;;;;;;;46.67;24.60;;;;;;;-145.18;100.00;46625.22;6092776;23;20305;-74
2023/01/24 10:33:16;;;;;;;51.90;25.93;;;;;;;-145.18;100.00;46619.38;6093651;23;20253;-74
2023/01/24 10:35:59;;;;;;;42.40;23.45;;;;;;;-145.18;100.00;46623.28;6093373;23;20229;-74
2023/01/24 10:38:26;;;;;;;45.87;25.30;;;;;;;-145.18;100.00;46619.38;6093643;23;20428;-74
2023/01/24 10:40:54;;;;;;;51.47;26.83;;;;;;;-145.18;100.00;46654.53;6092960;23;20228;-74
2023/01/24 10:43:24;;;;;;;48.07;24.83;;;;;;;-145.18;100.00;46654.53;6092727;23;20237;-74
2023/01/24 10:46:06;;;;;;;46.43;23.73;;;;;;;-145.18;100.00;46650.63;6093118;23;20229;-74
2023/01/24 10:48:45;;;;;;;43.30;22.17;;;;;;;-145.18;100.00;46638.91;6091666;23;20308;-74
2023/01/24 10:51:20;;;;;;;46.30;24.70;;;;;;;-145.18;100.00;46638.91;6093361;23;20284;-74
2023/01/24 10:53:46;;;;;;;47.30;24.63;;;;;;;-145.18;100.00;46636.94;6092672;23;20264;-74
2023/01/24 10:56:14;;;;;;;43.67;23.93;;;;;;;-145.18;100.00;46638.91;6093149;23;20233;-74
2023/01/24 10:58:53;;;;;;;49.80;24.93;;;;;;;-145.18;100.00;46638.91;6092668;23;20229;-74
2023/01/24 11:01:22;;;;;;;48.42;25.73;;;;;;;-145.18;100.00;46638.91;6093175;23;20228;-74
2023/01/24 11:03:49;;;;;;;45.90;24.53;;;;;;;-145.18;100.00;46607.66;6092177;23;20021;-74
2023/01/24 11:06:39;;;;;;;44.60;23.03;;;;;;;-145.18;100.00;46597.88;6092762;23;20244;-74
2023/01/24 11:09:30;;;;;;;46.57;23.57;;;;;;;-145.18;100.00;46611.56;6092858;23;20229;-74
2023/01/24 11:11:57;;;;;;;45.30;26.53;;;;;;;-145.18;100.00;46613.50;6092791;23;20263;-74
2023/01/24 11:14:30;;;;;;;43.85;22.90;;;;;;;-145.18;100.00;46609.59;6093043;23;20233;-74
2023/01/24 11:16:58;;;;;;;50.37;25.97;;;;;;;-145.18;100.00;46609.59;6093260;23;20067;-74
2023/01/24 11:19:39;;;;;;;47.00;24.83;;;;;;;-145.18;100.00;46599.84;6092059;23;20276;-74
2023/01/24 11:22:22;;;;;;;47.30;23.57;;;;;;;-145.18;100.00;46613.50;6094912;23;20229;-74
2023/01/24 11:24:48;;;;;;;46.72;23.95;;;;;;;-145.18;100.00;46603.75;6094662;23;20311;-74
2023/01/24 11:27:19;;;;;;;53.40;24.30;;;;;;;-145.18;100.00;46609.59;6094590;23;20082;-74
2023/01/24 11:30:04;;;;;;;45.70;24.30;;;;;;;-145.18;100.00;46611.56;6094045;23;20436;-74
2023/01/24 11:33:07;;;;;;;49.53;26.03;;;;;;;-145.18;100.00;46609.59;6094861;23;21001;-74
2023/01/24 11:35:36;;;;;;;48.17;25.23;;;;;;;-145.18;100.00;46609.59;6092499;23;20248;-74
2023/01/24 11:38:22;;;;;;;50.17;25.60;;;;;;;-145.18;100.00;46601.78;6094544;23;20551;-74
2023/01/24 11:41:19;;;;;;;47.35;24.60;;;;;;;-145.18;100.00;46609.59;6094396;23;20674;-74